createdAt,value
2023-04-29T00:02:06.518Z,57.61
2023-04-29T00:07:11.856Z,57.55
2023-04-29T00:09:40.666Z,58.96
2023-04-29T00:12:11.732Z,58.73
2023-04-29T00:14:40.293Z,63.67
2023-04-29T00:17:09.100Z,59.82
2023-04-29T00:19:38.206Z,58.97
2023-04-29T00:22:07.658Z,61.16
2023-04-29T00:24:36.473Z,61.09
2023-04-29T00:27:06.276Z,59.59
2023-04-29T00:29:36.937Z,55.25
2023-04-29T00:32:06.793Z,56.58
2023-04-29T00:34:35.553Z,60.14
2023-04-29T00:37:04.441Z,61.59
2023-04-29T00:39:33.012Z,60.46
2023-04-29T00:42:03.515Z,57.78
2023-04-29T00:44:32.029Z,58.73
2023-04-29T00:47:04.004Z,56.79
2023-04-29T00:49:33.334Z,62.92
2023-04-29T00:52:02.650Z,58.27
2023-04-29T00:54:31.832Z,59.03
2023-04-29T00:57:02.800Z,55.26
2023-04-29T00:59:32.538Z,56.33
2023-04-29T01:02:04.444Z,56.74
2023-04-29T01:04:36.315Z,56.34
2023-04-29T01:07:14.331Z,56.73
2023-04-29T01:09:58.971Z,58.89
2023-04-29T01:12:34.474Z,59.19
2023-04-29T01:15:06.976Z,64.26
2023-04-29T01:17:44.129Z,60.29
2023-04-29T01:20:13.600Z,59.53
2023-04-29T01:22:44.954Z,62.30
2023-04-29T01:25:22.292Z,60.42
2023-04-29T01:28:22.985Z,62.08
2023-04-29T01:30:58.280Z,61.90
2023-04-29T01:33:39.785Z,61.32
2023-04-29T01:36:18.740Z,59.21
2023-04-29T01:38:54.726Z,59.18
2023-04-29T01:41:33.472Z,60.78
2023-04-29T01:44:17.073Z,61.03
2023-04-29T01:46:50.342Z,61.15
2023-04-29T01:49:22.478Z,59.02
2023-04-29T01:51:51.192Z,59.94
2023-04-29T01:54:19.532Z,62.04
2023-04-29T01:56:49.728Z,61.47
2023-04-29T01:59:25.666Z,61.18
2023-04-29T02:02:10.720Z,60.70
2023-04-29T02:04:46.683Z,64.83
2023-04-29T02:07:14.974Z,62.38
2023-04-29T02:09:43.746Z,61.95
2023-04-29T02:12:15.106Z,63.93
2023-04-29T02:14:43.300Z,62.29
2023-04-29T02:17:12.538Z,63.42
2023-04-29T02:19:42.840Z,64.37
2023-04-29T02:22:12.567Z,62.07
2023-04-29T02:24:42.552Z,61.52
2023-04-29T02:27:10.499Z,63.71
2023-04-29T02:29:52.816Z,66.60
2023-04-29T02:32:21.696Z,68.01
2023-04-29T02:34:51.114Z,74.57
2023-04-29T02:37:20.860Z,67.21
2023-04-29T02:39:50.001Z,64.86
2023-04-29T02:42:27.340Z,65.36
2023-04-29T02:45:09.424Z,64.98
2023-04-29T02:47:42.682Z,66.02
2023-04-29T02:50:15.856Z,64.50
2023-04-29T02:52:49.430Z,62.18
2023-04-29T02:55:19.238Z,68.05
2023-04-29T02:57:50.846Z,66.30
2023-04-29T03:00:25.052Z,62.48
2023-04-29T03:02:55.449Z,70.72
2023-04-29T03:05:23.905Z,65.34
2023-04-29T03:07:52.657Z,65.38
2023-04-29T03:10:21.886Z,65.25
2023-04-29T03:12:51.503Z,64.95
2023-04-29T03:15:21.869Z,66.33
2023-04-29T03:17:50.856Z,65.45
2023-04-29T03:20:20.595Z,69.37
2023-04-29T03:22:58.588Z,66.89
2023-04-29T03:25:27.230Z,62.10
2023-04-29T03:27:56.363Z,61.79
2023-04-29T03:30:27.441Z,63.25
2023-04-29T03:33:01.480Z,60.08
2023-04-29T03:35:31.839Z,60.36
2023-04-29T03:38:24.387Z,65.28
2023-04-29T03:40:58.552Z,64.14
2023-04-29T03:43:37.209Z,65.47
2023-04-29T03:46:08.349Z,66.47
2023-04-29T03:48:41.844Z,63.90
2023-04-29T03:51:15.450Z,66.91
2023-04-29T03:53:47.002Z,62.29
2023-04-29T03:56:17.471Z,62.53
2023-04-29T03:58:47.552Z,60.02
2023-04-29T04:01:17.869Z,59.26
2023-04-29T04:03:48.116Z,62.59
2023-04-29T04:06:16.570Z,61.66
2023-04-29T04:08:45.327Z,65.73
2023-04-29T04:11:17.427Z,63.46
2023-04-29T04:14:00.720Z,65.66
2023-04-29T04:16:30.968Z,60.52
2023-04-29T04:19:00.150Z,64.06
2023-04-29T04:21:29.013Z,61.20
2023-04-29T04:24:03.849Z,71.24
2023-04-29T04:26:32.756Z,69.35
2023-04-29T04:29:16.493Z,60.19
2023-04-29T04:32:01.946Z,61.13
2023-04-29T04:34:32.511Z,66.04
2023-04-29T04:37:03.019Z,60.50
2023-04-29T04:39:32.769Z,58.81
2023-04-29T04:42:05.737Z,58.14
2023-04-29T04:44:36.495Z,59.69
2023-04-29T04:47:11.649Z,60.07
2023-04-29T04:49:49.912Z,57.19
2023-04-29T04:52:21.359Z,61.78
2023-04-29T04:55:00.559Z,61.29
2023-04-29T04:57:31.196Z,61.97
2023-04-29T05:00:02.592Z,63.79
2023-04-29T05:02:32.164Z,69.24
2023-04-29T05:05:00.396Z,69.65
2023-04-29T05:07:31.809Z,67.73
2023-04-29T05:10:06.654Z,70.91
2023-04-29T05:12:38.297Z,64.05
2023-04-29T05:15:07.203Z,62.10
2023-04-29T05:17:36.830Z,62.87
2023-04-29T05:20:06.447Z,61.41
2023-04-29T05:22:35.236Z,62.32
2023-04-29T05:25:03.873Z,69.93
2023-04-29T05:27:35.315Z,69.46
2023-04-29T05:30:06.332Z,60.45
2023-04-29T05:32:36.544Z,64.61
2023-04-29T05:35:07.630Z,59.89
2023-04-29T05:37:36.745Z,63.23
2023-04-29T05:40:15.826Z,58.38
2023-04-29T05:42:44.845Z,56.21
2023-04-29T05:45:14.153Z,57.59
2023-04-29T05:47:43.715Z,63.20
2023-04-29T05:50:12.790Z,63.56
2023-04-29T05:52:41.078Z,56.10
2023-04-29T05:55:11.212Z,63.29
2023-04-29T05:57:40.256Z,63.97
2023-04-29T06:00:10.563Z,64.30
2023-04-29T06:02:57.658Z,61.59
2023-04-29T06:05:29.567Z,66.96
2023-04-29T06:08:12.011Z,65.23
2023-04-29T06:10:52.090Z,60.70
2023-04-29T06:13:20.467Z,58.51
2023-04-29T06:15:48.773Z,59.64
2023-04-29T06:18:19.052Z,55.83
2023-04-29T06:20:47.263Z,61.55
2023-04-29T06:23:16.140Z,55.71
2023-04-29T06:25:44.406Z,61.88
2023-04-29T06:28:12.448Z,58.66
2023-04-29T06:30:40.488Z,57.97
2023-04-29T06:33:13.870Z,54.65
2023-04-29T06:35:43.576Z,54.03
2023-04-29T06:42:57.396Z,54.79
2023-04-29T06:45:51.942Z,55.76
2023-04-29T06:48:30.075Z,59.86
2023-04-29T06:51:00.464Z,57.80
2023-04-29T06:53:37.088Z,54.19
2023-04-29T06:56:05.880Z,52.94
2023-04-29T06:58:34.130Z,56.58
2023-04-29T07:01:05.539Z,54.14
2023-04-29T07:03:33.687Z,58.46
2023-04-29T07:06:05.133Z,58.09
2023-04-29T07:08:33.280Z,58.49
2023-04-29T07:11:01.566Z,53.85
2023-04-29T07:13:30.097Z,52.01
2023-04-29T07:15:58.435Z,50.35
2023-04-29T07:18:27.268Z,52.11
2023-04-29T07:20:55.840Z,54.12
2023-04-29T07:23:27.878Z,52.57
2023-04-29T07:25:57.505Z,53.07
2023-04-29T07:28:26.197Z,50.73
2023-04-29T07:30:55.323Z,49.28
2023-04-29T07:33:26.322Z,52.80
2023-04-29T07:35:54.594Z,51.98
2023-04-29T07:38:22.635Z,54.43
2023-04-29T07:40:52.006Z,50.60
2023-04-29T07:43:20.427Z,46.86
2023-04-29T07:45:48.597Z,44.98
2023-04-29T07:48:17.031Z,51.18
2023-04-29T07:50:46.439Z,50.15
2023-04-29T07:53:15.752Z,52.00
2023-04-29T07:55:43.848Z,51.12
2023-04-29T07:58:13.808Z,47.79
2023-04-29T08:00:41.896Z,45.00
2023-04-29T08:03:10.491Z,47.79
2023-04-29T08:05:38.783Z,48.18
2023-04-29T08:08:07.014Z,49.87
2023-04-29T08:10:34.988Z,51.99
2023-04-29T08:13:03.197Z,47.71
2023-04-29T08:15:32.485Z,45.61
2023-04-29T08:18:00.578Z,47.43
2023-04-29T08:20:28.860Z,47.35
2023-04-29T08:22:57.123Z,43.56
2023-04-29T08:25:27.246Z,47.29
2023-04-29T08:27:55.215Z,44.93
2023-04-29T08:30:23.289Z,47.42
2023-04-29T08:32:53.284Z,45.75
2023-04-29T08:35:21.476Z,45.65
2023-04-29T08:37:49.642Z,46.23
2023-04-29T08:40:17.669Z,47.31
2023-04-29T08:42:48.852Z,47.93
2023-04-29T08:45:21.866Z,41.38
2023-04-29T08:47:51.640Z,42.14
2023-04-29T08:50:21.302Z,43.48
2023-04-29T08:52:51.334Z,43.34
2023-04-29T08:55:19.720Z,46.45
2023-04-29T08:57:50.528Z,41.95
2023-04-29T09:00:19.771Z,43.27
2023-04-29T09:02:51.785Z,43.87
2023-04-29T09:05:21.893Z,42.73
2023-04-29T09:07:51.520Z,44.17
2023-04-29T09:10:20.269Z,44.71
2023-04-29T09:12:48.267Z,44.81
2023-04-29T09:15:16.456Z,43.03
2023-04-29T09:17:46.096Z,42.51
2023-04-29T09:20:31.827Z,41.73
2023-04-29T09:23:02.974Z,43.64
2023-04-29T09:25:31.649Z,42.57
2023-04-29T09:27:59.788Z,39.45
2023-04-29T09:30:28.001Z,44.74
2023-04-29T09:33:07.559Z,40.10
2023-04-29T09:35:38.228Z,44.47
2023-04-29T09:38:12.085Z,44.29
2023-04-29T09:40:54.376Z,46.09
2023-04-29T09:43:25.561Z,46.19
2023-04-29T09:45:53.629Z,45.09
2023-04-29T09:48:21.850Z,46.66
2023-04-29T09:51:03.811Z,46.57
2023-04-29T09:53:32.669Z,43.55
2023-04-29T09:56:02.698Z,41.55
2023-04-29T09:58:34.313Z,40.03
2023-04-29T10:01:03.813Z,39.38
2023-04-29T10:03:35.157Z,42.23
2023-04-29T10:06:08.649Z,41.03
2023-04-29T10:08:37.035Z,40.47
2023-04-29T10:11:06.306Z,40.06
2023-04-29T10:13:38.495Z,41.06
2023-04-29T10:16:15.763Z,39.47
2023-04-29T10:18:50.252Z,40.05
2023-04-29T10:21:22.251Z,37.09
2023-04-29T10:23:51.341Z,39.49
2023-04-29T10:26:20.026Z,37.92
2023-04-29T10:28:51.551Z,37.47
2023-04-29T10:31:22.767Z,39.66
2023-04-29T10:33:53.257Z,39.15
2023-04-29T10:36:23.637Z,37.66
2023-04-29T10:38:55.515Z,34.51
2023-04-29T10:41:26.867Z,34.10
2023-04-29T10:43:55.072Z,34.48
2023-04-29T10:46:26.330Z,34.93
2023-04-29T10:48:59.636Z,34.21
2023-04-29T10:51:34.388Z,38.12
2023-04-29T10:54:09.798Z,34.86
2023-04-29T10:56:42.911Z,35.87
2023-04-29T10:59:13.100Z,36.27
2023-04-29T11:01:49.453Z,36.70
2023-04-29T11:04:18.628Z,36.43
2023-04-29T11:06:52.449Z,37.44
2023-04-29T11:09:22.346Z,34.55
2023-04-29T11:12:03.033Z,37.43
2023-04-29T11:14:33.581Z,32.60
2023-04-29T11:17:03.658Z,33.98
2023-04-29T11:19:36.176Z,34.12
2023-04-29T11:22:14.048Z,36.04
2023-04-29T11:24:53.197Z,35.04
2023-04-29T11:27:25.776Z,33.65
2023-04-29T11:29:58.703Z,32.25
2023-04-29T11:32:27.861Z,30.69
2023-04-29T11:34:56.616Z,29.80
2023-04-29T11:37:27.587Z,30.85
2023-04-29T11:40:01.488Z,34.23
2023-04-29T11:42:29.585Z,32.59
2023-04-29T11:44:59.603Z,33.17
2023-04-29T11:47:29.579Z,34.10
2023-04-29T11:50:04.568Z,35.63
2023-04-29T11:52:34.699Z,35.94
2023-04-29T11:55:03.847Z,35.45
2023-04-29T11:57:31.899Z,33.98
2023-04-29T12:00:00.145Z,35.17
2023-04-29T12:02:32.687Z,31.80
2023-04-29T12:05:02.774Z,32.82
2023-04-29T12:07:31.143Z,31.78
2023-04-29T12:10:00.784Z,33.16
2023-04-29T12:12:29.322Z,33.03
2023-04-29T12:14:58.582Z,34.96
2023-04-29T12:17:27.017Z,34.05
2023-04-29T12:19:55.620Z,31.69
2023-04-29T12:22:24.056Z,30.91
2023-04-29T12:24:54.729Z,32.66
2023-04-29T12:27:26.681Z,32.73
2023-04-29T12:29:54.870Z,33.77
2023-04-29T12:32:25.926Z,33.12
2023-04-29T12:34:55.412Z,30.82
2023-04-29T12:37:24.553Z,30.82
2023-04-29T12:39:54.337Z,30.78
2023-04-29T12:42:22.282Z,33.98
2023-04-29T12:44:51.845Z,33.66
2023-04-29T12:47:21.539Z,33.45
2023-04-29T12:49:50.313Z,30.54
2023-04-29T12:52:18.208Z,33.47
2023-04-29T12:54:46.269Z,31.92
2023-04-29T12:57:14.530Z,31.25
2023-04-29T12:59:42.527Z,31.77
2023-04-29T13:02:12.533Z,31.48
2023-04-29T13:04:40.638Z,32.06
2023-04-29T13:07:08.986Z,32.62
2023-04-29T13:09:38.115Z,33.82
2023-04-29T13:12:09.393Z,33.89
2023-04-29T13:14:37.531Z,33.38
2023-04-29T13:17:06.153Z,35.05
2023-04-29T13:22:07.490Z,34.93
2023-04-29T13:24:36.598Z,35.41
2023-04-29T13:27:05.803Z,34.55
2023-04-29T13:29:34.145Z,33.95
2023-04-29T13:32:02.397Z,34.00
2023-04-29T13:34:30.393Z,32.28
2023-04-29T13:36:59.878Z,32.26
2023-04-29T13:39:28.156Z,33.74
2023-04-29T13:41:58.959Z,31.56
2023-04-29T13:44:37.657Z,31.01
2023-04-29T13:47:15.478Z,31.21
2023-04-29T13:50:22.582Z,31.64
2023-04-29T13:55:50.057Z,31.23
2023-04-29T14:01:17.189Z,31.94
2023-04-29T14:06:22.447Z,35.20
2023-04-29T14:14:22.907Z,35.43
2023-04-29T14:22:22.005Z,33.07
2023-04-29T14:27:36.871Z,32.61
2023-04-29T14:30:05.851Z,32.66
2023-04-29T14:38:05.090Z,34.32
2023-04-29T14:46:05.583Z,34.50
2023-04-29T14:48:33.543Z,32.99
2023-04-29T14:53:46.958Z,33.92
2023-04-29T14:56:17.685Z,32.39
2023-04-29T14:58:45.917Z,32.18
2023-04-29T15:03:59.241Z,32.63
2023-04-29T15:20:22.122Z,33.62
2023-04-29T15:22:50.126Z,30.91
2023-04-29T15:28:05.956Z,30.50
2023-04-29T15:30:34.119Z,31.87
2023-04-29T15:46:51.009Z,31.10
2023-04-29T15:49:19.114Z,33.23
2023-04-29T15:51:47.352Z,32.30
2023-04-29T15:59:48.377Z,30.14
2023-04-29T16:02:16.860Z,29.41
2023-04-29T16:04:44.751Z,29.28
2023-04-29T16:07:12.764Z,30.14
2023-04-29T16:09:40.767Z,31.39
2023-04-29T16:12:11.492Z,30.79
2023-04-29T16:34:06.020Z,27.43
2023-04-29T16:39:20.204Z,28.34
2023-04-29T16:41:48.445Z,27.40
2023-04-29T16:47:02.539Z,29.23
2023-04-29T16:49:32.394Z,28.48
2023-04-29T16:52:00.482Z,26.93
2023-04-29T16:57:14.556Z,30.77
2023-04-29T16:59:42.785Z,30.65
2023-04-29T17:02:10.800Z,31.12
2023-04-29T17:04:40.716Z,29.82
2023-04-29T17:12:40.968Z,31.65
2023-04-29T17:15:10.029Z,31.58
2023-04-29T17:17:38.406Z,32.32
2023-04-29T17:20:09.559Z,31.53
2023-04-29T17:28:11.870Z,30.42
2023-04-29T17:36:21.052Z,32.69
2023-04-29T17:44:23.170Z,31.58
2023-04-29T17:55:10.724Z,31.99
2023-04-29T18:00:26.062Z,32.92
2023-04-29T18:05:39.966Z,34.03
2023-04-29T18:10:55.310Z,31.98
2023-04-29T18:13:25.915Z,32.23
2023-04-29T18:18:41.575Z,33.85
2023-04-29T18:37:46.455Z,33.58
2023-04-29T18:43:02.038Z,34.13
2023-04-29T18:45:30.503Z,36.52
2023-04-29T18:47:58.715Z,37.19
2023-04-29T18:50:26.753Z,38.71
2023-04-29T18:52:54.878Z,37.51
2023-04-29T18:55:25.450Z,38.45
2023-04-29T19:11:47.858Z,42.17
2023-04-29T19:14:16.115Z,41.29
2023-04-29T19:19:30.297Z,40.53
2023-04-29T19:21:59.530Z,41.00
2023-04-29T19:38:17.735Z,43.00
2023-04-29T19:40:45.726Z,42.68
2023-04-29T19:59:50.724Z,46.64
2023-04-29T20:05:04.757Z,44.52
2023-04-29T20:13:03.850Z,45.53
2023-04-29T20:29:23.385Z,46.63
2023-04-29T20:45:42.923Z,48.23
2023-04-29T20:56:29.018Z,48.16
2023-04-29T20:58:58.980Z,48.31
2023-04-29T21:01:27.045Z,45.30
2023-04-29T21:09:27.660Z,46.11
2023-04-29T21:11:57.938Z,45.52
2023-04-29T21:14:27.477Z,47.56
2023-04-29T21:16:56.476Z,47.82
2023-04-29T21:19:26.022Z,45.35
2023-04-29T21:21:53.964Z,43.93
2023-04-29T21:27:10.186Z,47.10
2023-04-29T21:35:13.237Z,45.30
2023-04-29T21:37:41.258Z,46.20
2023-04-29T21:40:10.491Z,46.26
2023-04-29T21:45:24.602Z,44.89
2023-04-29T21:47:55.531Z,45.10
2023-04-29T21:50:24.897Z,46.90
2023-04-29T22:01:26.494Z,46.29
2023-04-29T22:03:54.762Z,46.11
2023-04-29T22:09:10.032Z,44.54
2023-04-29T22:17:09.676Z,46.54
2023-04-29T22:25:10.312Z,49.89
2023-04-29T22:27:38.330Z,50.98
2023-04-29T22:38:26.082Z,46.80
2023-04-29T22:40:54.171Z,46.32
2023-04-29T22:48:53.652Z,46.46
2023-04-29T22:54:08.513Z,43.78
2023-04-29T22:56:36.450Z,42.88
2023-04-29T22:59:04.283Z,45.80
2023-04-29T23:15:20.215Z,43.65
2023-04-29T23:17:48.278Z,42.70
2023-04-29T23:20:16.204Z,43.29
2023-04-29T23:25:30.973Z,44.57
2023-04-29T23:27:58.886Z,44.59
2023-04-29T23:33:12.228Z,47.01
2023-04-29T23:35:40.134Z,46.71
2023-04-29T23:40:57.535Z,45.45
2023-04-29T23:43:25.498Z,46.10
2023-04-29T23:51:24.450Z,44.44
2023-04-29T23:56:39.685Z,46.23
2023-04-29T23:59:07.916Z,47.18
